This is the latest recevied weather packets stored in our database for station/object HK6RM-18. If no packets are shown the sender has not sent any weather packets the latest 10 day(s).
| Time | Temp. | Humidity | Pressure | Rain* | Wind** | Luminosity | Snow |
|---|---|---|---|---|---|---|---|
| 1777857701 | 20.56° C | 89% | 1015 hPa | 0 mm | - | - | - |
| 1777856800 | 15° C | 82% | 1015 hPa | 0 mm | - | - | - |
| 1777855900 | 15.56° C | 82% | 1015 hPa | 0 mm | - | - | - |
| 1777854998 | 16.11° C | 82% | 1015 hPa | 0 mm | - | - | - |
| 1777854096 | 15.56° C | 80% | 1014 hPa | 0 mm | - | - | - |
| 1777853194 | 16.11° C | 80% | 1014 hPa | 0 mm | - | - | - |
| 1777852292 | 16.67° C | 80% | 1014 hPa | 0 mm | - | - | - |
| 1777851392 | 17.22° C | 80% | 1013 hPa | 0 mm | - | - | - |
| 1777850490 | 16.67° C | 80% | 1012 hPa | 1.27 mm | - | - | - |
| 1777849588 | 17.22° C | 80% | 1012 hPa | 0 mm | - | - | - |
| 1777848685 | 17.78° C | 80% | 1012 hPa | 0 mm | - | - | - |
| 1777847785 | 18.33° C | 80% | 1012 hPa | 0 mm | - | - | - |
| 1777846884 | 17.22° C | 81% | 1011 hPa | 0 mm | - | - | - |
| 1777845982 | 17.78° C | 81% | 1011 hPa | 0 mm | - | - | - |
| 1777845082 | 18.33° C | 80% | 1011 hPa | 0 mm | - | - | - |
| 1777844181 | 18.89° C | 80% | 1011 hPa | 0 mm | - | - | - |
| 1777843281 | 19.44° C | 80% | 1011 hPa | 0 mm | - | - | - |
| 1777842380 | 20° C | 80% | 1011 hPa | 0 mm | - | - | - |
| 1777841480 | 21.11° C | 80% | 1011 hPa | 0 mm | - | - | - |
| 1777840579 | 21.67° C | 81% | 1011 hPa | 0 mm | - | - | - |
| 1777839678 | 21.11° C | 76% | 1011 hPa | 0 mm | - | - | - |
| 1777838775 | 21.67° C | 74% | 1011 hPa | 0 mm | - | - | - |
| 1777837874 | 22.22° C | 71% | 1011 hPa | 0 mm | - | - | - |
| 1777836974 | 22.78° C | 71% | 1011 hPa | 0 mm | - | - | - |
| 1777836073 | 22.78° C | 71% | 1011 hPa | 0 mm | - | - | - |
* Rain latest hour (hover to see other rain measurements)
** Current wind speed in m/s (hover to see current wind gust speed)